Time;durP1;ratioP1;P1;durP2;ratioP2;P2;SDS_P1;SDS_P2;PMS_P1;PMS_P2;Temp;Humidity;BMP_temperature;BMP_pressure;BME280_temperature;BME280_humidity;BME280_pressure;Samples;Min_cycle;Max_cycle;Signal;HPM_P1;HPM_P2
2024/04/24 00:02:17;;;;;;;0.00;0.00;;;;;;;7.61;67.90;101524.75;5384759;26;20011;-82
2024/04/24 00:04:44;;;;;;;0.10;0.10;;;;;;;7.63;67.62;101531.78;5383819;26;19993;-81
2024/04/24 00:07:10;;;;;;;0.10;0.10;;;;;;;7.63;67.03;101527.38;5386345;26;20537;-81
2024/04/24 00:09:36;;;;;;;0.05;0.05;;;;;;;7.63;66.88;101527.38;5380959;26;19996;-81
2024/04/24 00:12:03;;;;;;;0.00;0.00;;;;;;;7.64;66.60;101523.88;5386116;26;19992;-81
2024/04/24 00:14:29;;;;;;;0.10;0.10;;;;;;;7.66;66.38;101519.47;5387369;26;20031;-81
2024/04/24 00:16:55;;;;;;;0.10;0.10;;;;;;;7.63;66.72;101516.84;5404862;26;19996;-81
2024/04/24 00:19:21;;;;;;;0.10;0.10;;;;;;;7.65;66.62;101509.81;5404947;26;19992;-81
2024/04/24 00:21:47;;;;;;;0.00;0.00;;;;;;;7.70;66.54;101508.06;5388467;26;20399;-81
2024/04/24 00:24:15;;;;;;;0.10;0.10;;;;;;;7.65;66.69;101501.91;5384387;26;20459;-81
2024/04/24 00:26:42;;;;;;;0.10;0.10;;;;;;;7.71;66.63;101503.66;5382021;26;20004;-81
2024/04/24 00:29:08;;;;;;;0.10;0.10;;;;;;;7.71;66.55;101506.31;5382315;26;20000;-81
2024/04/24 00:31:34;;;;;;;0.10;0.10;;;;;;;7.66;66.71;101501.00;5382130;26;20000;-81
2024/04/24 00:34:00;;;;;;;0.10;0.10;;;;;;;7.69;66.62;101489.59;5381648;26;20456;-81
2024/04/24 00:36:29;;;;;;;0.10;0.10;;;;;;;7.66;66.91;101487.81;5379861;26;20015;-80
2024/04/24 00:38:55;;;;;;;0.45;0.45;;;;;;;7.68;66.54;101491.34;5382439;26;20012;-81
2024/04/24 00:41:22;;;;;;;0.00;0.00;;;;;;;7.67;67.02;101484.31;5381805;26;19996;-81
2024/04/24 00:43:48;;;;;;;0.10;0.10;;;;;;;7.70;67.00;101496.63;5381771;26;20070;-81
2024/04/24 00:46:17;;;;;;;0.05;0.05;;;;;;;7.64;67.73;101518.63;5381660;26;20028;-80
2024/04/24 00:48:44;;;;;;;0.10;0.10;;;;;;;7.61;67.61;101494.84;5382575;26;20073;-80
2024/04/24 00:51:11;;;;;;;0.10;0.10;;;;;;;7.51;67.33;101485.16;5381666;26;20010;-80
2024/04/24 00:53:38;;;;;;;0.10;0.10;;;;;;;7.43;67.24;101472.81;5381864;26;20007;-80
2024/04/24 00:56:05;;;;;;;0.10;0.10;;;;;;;7.37;67.16;101467.53;5381902;26;19996;-80
2024/04/24 00:58:33;;;;;;;0.08;0.08;;;;;;;7.34;66.92;101469.28;5381995;26;20344;-80
2024/04/24 01:01:00;;;;;;;0.10;0.10;;;;;;;7.33;66.86;101475.41;5381567;26;20010;-81
2024/04/24 01:03:26;;;;;;;0.10;0.10;;;;;;;7.30;67.31;101476.28;5381311;26;20331;-80
2024/04/24 01:05:53;;;;;;;0.03;0.03;;;;;;;7.29;66.72;101475.41;5381397;26;20024;-80
2024/04/24 01:08:19;;;;;;;0.10;0.10;;;;;;;7.26;67.25;101463.97;5381725;26;20008;-81
2024/04/24 01:10:45;;;;;;;0.00;0.00;;;;;;;7.23;67.48;101463.97;5375459;26;20000;-81
2024/04/24 01:13:11;;;;;;;0.10;0.10;;;;;;;7.22;67.50;101454.31;5379087;26;20087;-80
2024/04/24 01:15:40;;;;;;;0.10;0.10;;;;;;;7.22;67.29;101451.69;5380525;26;20012;-81
2024/04/24 01:18:07;;;;;;;0.10;0.10;;;;;;;7.22;67.27;101446.41;5379348;26;20074;-80
2024/04/24 01:20:34;;;;;;;0.10;0.10;;;;;;;7.21;67.82;101434.09;5381216;26;19992;-80
2024/04/24 01:28:13;;;;;;;0.10;0.10;;;;;;;7.27;68.10;101415.66;5465573;25;1850766;-79
2024/04/24 01:30:39;;;;;;;0.08;0.08;;;;;;;7.30;68.10;101423.56;5481427;25;20042;-78
2024/04/24 01:33:05;;;;;;;0.10;0.10;;;;;;;7.27;67.89;101420.94;5484620;26;20017;-77
2024/04/24 01:35:31;;;;;;;0.10;0.10;;;;;;;7.26;67.83;101421.81;5477001;26;19998;-80
2024/04/24 01:37:58;;;;;;;0.10;0.10;;;;;;;7.23;67.55;101419.19;5492946;25;19994;-79
2024/04/24 01:40:24;;;;;;;0.10;0.10;;;;;;;7.13;67.49;101427.03;5494645;25;20017;-78
2024/04/24 01:42:50;;;;;;;0.20;0.20;;;;;;;7.13;67.36;101421.75;5507760;25;19998;-78
2024/04/24 01:45:17;;;;;;;0.10;0.10;;;;;;;7.12;67.01;101416.50;5489127;26;19999;-80
2024/04/24 01:47:43;;;;;;;0.10;0.10;;;;;;;7.14;66.80;101420.03;5497922;26;20006;-78
2024/04/24 01:50:09;;;;;;;0.13;0.13;;;;;;;7.11;67.35;101412.97;5472898;26;20085;-77
2024/04/24 01:52:35;;;;;;;0.10;0.10;;;;;;;7.13;67.28;101405.97;5496021;25;20010;-78
2024/04/24 01:55:01;;;;;;;0.10;0.10;;;;;;;7.13;67.36;101400.69;5475998;26;20018;-77
2024/04/24 01:57:28;;;;;;;0.10;0.10;;;;;;;7.10;67.53;101392.78;5472154;26;20415;-78
2024/04/24 01:59:54;;;;;;;0.08;0.08;;;;;;;7.13;67.29;101392.78;5506320;26;20009;-78
2024/04/24 02:02:20;;;;;;;0.55;0.55;;;;;;;7.07;67.88;101387.50;5479377;26;20349;-78
2024/04/24 02:04:46;;;;;;;0.15;0.15;;;;;;;7.08;67.43;101389.25;5490030;26;20013;-75
2024/04/24 02:07:15;;;;;;;0.10;0.10;;;;;;;7.09;67.26;101393.66;5502443;26;20468;-82
2024/04/24 02:09:41;;;;;;;0.08;0.08;;;;;;;7.12;67.56;101392.78;5510163;26;19994;-76
2024/04/24 02:12:08;;;;;;;0.57;0.57;;;;;;;7.16;67.74;101380.50;5499416;26;19997;-77
2024/04/24 02:14:34;;;;;;;0.05;0.05;;;;;;;7.20;67.75;101374.34;5496883;26;20011;-78
2024/04/24 02:17:00;;;;;;;0.10;0.10;;;;;;;7.25;67.95;101367.31;5494121;26;20012;-79
2024/04/24 02:19:26;;;;;;;0.10;0.10;;;;;;;7.27;68.46;101370.84;5487908;26;20010;-78
2024/04/24 02:21:52;;;;;;;0.10;0.10;;;;;;;7.37;67.92;101369.13;5501354;26;20570;-78
2024/04/24 02:25:33;;;;;;;0.80;0.75;;;;;;;7.39;67.85;101378.78;5500478;26;20033;-77
2024/04/24 02:27:05;;;;;;;0.10;0.10;;;;;;;7.32;67.96;101418.31;5497301;26;20069;-76
2024/04/24 02:29:31;;;;;;;0.10;0.10;;;;;;;6.97;67.22;101419.97;5485223;26;19995;-78
2024/04/24 02:31:57;;;;;;;0.40;0.40;;;;;;;6.71;66.18;101406.66;5484003;26;19995;-78
2024/04/24 02:34:23;;;;;;;0.80;0.80;;;;;;;6.52;67.55;101400.41;5480663;26;20050;-77
2024/04/24 02:36:49;;;;;;;0.10;0.10;;;;;;;6.43;66.70;101391.59;5492618;26;20006;-77
2024/04/24 02:39:16;;;;;;;0.00;0.00;;;;;;;6.38;67.01;101387.16;5474140;25;20046;-77
2024/04/24 02:41:42;;;;;;;0.10;0.10;;;;;;;6.40;67.02;101386.28;5459462;26;20066;-77
2024/04/24 02:44:08;;;;;;;0.10;0.10;;;;;;;6.38;67.49;101388.06;5458202;26;20031;-77
2024/04/24 02:46:34;;;;;;;0.10;0.10;;;;;;;6.41;66.56;101376.66;5469872;26;19991;-78
2024/04/24 02:49:00;;;;;;;0.10;0.10;;;;;;;6.39;67.96;101376.66;5487522;26;20044;-78
2024/04/24 02:51:26;;;;;;;0.10;0.10;;;;;;;6.43;67.49;101364.38;5495970;26;19994;-77
2024/04/24 02:53:53;;;;;;;0.10;0.10;;;;;;;6.43;68.16;101369.63;5482974;26;20006;-79
2024/04/24 02:56:19;;;;;;;0.00;0.00;;;;;;;6.44;68.32;101361.78;5464865;26;20437;-79
2024/04/24 02:58:45;;;;;;;0.03;0.03;;;;;;;6.47;68.92;101355.66;5473070;26;19995;-79
2024/04/24 03:01:13;;;;;;;0.10;0.10;;;;;;;6.50;69.01;101352.16;5462200;26;20337;-78
2024/04/24 03:03:40;;;;;;;0.10;0.10;;;;;;;6.53;69.00;101346.88;5481291;26;20075;-79
2024/04/24 03:06:07;;;;;;;0.10;0.10;;;;;;;6.58;68.87;101347.78;5454317;26;20005;-78
2024/04/24 03:08:33;;;;;;;0.10;0.10;;;;;;;6.59;69.47;101339.00;5478331;26;19998;-78
2024/04/24 03:10:59;;;;;;;0.10;0.10;;;;;;;6.64;69.42;101337.28;5483592;26;20005;-78
2024/04/24 03:13:25;;;;;;;0.10;0.10;;;;;;;6.66;69.68;101338.16;5471592;26;20056;-78
2024/04/24 03:15:52;;;;;;;0.10;0.10;;;;;;;6.70;69.51;101334.66;5472069;26;20341;-79
2024/04/24 03:18:18;;;;;;;0.10;0.10;;;;;;;6.64;70.06;101332.00;5478567;26;20006;-78
2024/04/24 03:20:44;;;;;;;2.85;2.65;;;;;;;6.62;70.40;101328.50;5479515;26;19995;-78
2024/04/24 03:23:10;;;;;;;0.10;0.10;;;;;;;6.62;70.31;101320.63;5472150;26;19994;-77
2024/04/24 03:25:37;;;;;;;0.05;0.05;;;;;;;6.65;70.29;101323.25;5464478;26;20331;-78
2024/04/24 03:28:03;;;;;;;0.10;0.10;;;;;;;6.70;69.95;101320.63;5466049;26;19991;-78
2024/04/24 03:30:29;;;;;;;0.10;0.10;;;;;;;6.74;69.86;101320.66;5464582;26;19991;-78
2024/04/24 03:32:55;;;;;;;0.10;0.10;;;;;;;6.76;69.80;101316.25;5484640;26;20062;-77
2024/04/24 03:35:21;;;;;;;0.10;0.10;;;;;;;6.73;70.39;101307.47;5467029;26;20453;-78
2024/04/24 03:37:48;;;;;;;0.10;0.10;;;;;;;6.82;70.30;101303.97;5470371;26;20003;-78
2024/04/24 03:40:14;;;;;;;0.10;0.10;;;;;;;6.86;70.27;101295.22;5470019;26;20000;-78
2024/04/24 03:42:42;;;;;;;0.10;0.10;;;;;;;6.83;70.70;101289.94;5479459;26;20040;-79
2024/04/24 03:45:08;;;;;;;0.10;0.10;;;;;;;6.89;70.23;101289.94;5470297;26;20330;-78
2024/04/24 03:47:34;;;;;;;0.10;0.10;;;;;;;6.88;70.32;101293.47;5466061;26;20477;-78
2024/04/24 03:50:00;;;;;;;0.10;0.10;;;;;;;6.89;70.23;101297.84;5468698;26;20346;-78
2024/04/24 03:52:27;;;;;;;0.10;0.10;;;;;;;6.90;70.20;101315.44;5479447;26;20023;-77
2024/04/24 03:54:53;;;;;;;0.10;0.10;;;;;;;6.84;70.09;101316.31;5494935;26;20036;-78
2024/04/24 03:57:19;;;;;;;0.03;0.03;;;;;;;6.75;69.68;101316.25;5499336;26;19994;-77
2024/04/24 03:59:45;;;;;;;0.10;0.10;;;;;;;6.67;69.00;101303.06;5474315;26;20005;-78
2024/04/24 04:02:11;;;;;;;0.10;0.10;;;;;;;6.59;68.74;101286.34;5470111;26;20070;-78
2024/04/24 04:04:38;;;;;;;0.10;0.10;;;;;;;6.52;68.61;101289.84;5468435;26;20005;-78
2024/04/24 04:07:04;;;;;;;0.10;0.10;;;;;;;6.49;68.90;101293.34;5481811;26;19997;-77
2024/04/24 04:09:30;;;;;;;0.10;0.10;;;;;;;6.53;69.28;101299.50;5475257;26;19990;-80
2024/04/24 04:11:56;;;;;;;0.13;0.13;;;;;;;6.56;69.24;101296.88;5456105;26;20006;-79
2024/04/24 04:14:22;;;;;;;0.10;0.10;;;;;;;6.47;69.79;101298.59;5455798;26;20059;-80
2024/04/24 04:16:48;;;;;;;0.10;0.10;;;;;;;6.53;69.04;101286.34;5469437;26;20027;-77
2024/04/24 04:19:14;;;;;;;0.10;0.10;;;;;;;6.50;69.42;101286.34;5476891;26;19998;-79
2024/04/24 04:21:41;;;;;;;0.10;0.10;;;;;;;6.50;68.96;101292.47;5466926;26;20071;-79
2024/04/24 04:24:07;;;;;;;0.10;0.10;;;;;;;6.48;68.92;101283.69;5475395;26;20009;-78
2024/04/24 04:26:33;;;;;;;0.25;0.25;;;;;;;6.43;69.05;101274.88;5472467;26;20009;-80
2024/04/24 04:29:00;;;;;;;0.10;0.10;;;;;;;6.40;69.14;101265.22;5483038;26;20500;-78
2024/04/24 04:31:26;;;;;;;0.10;0.10;;;;;;;6.30;69.58;101260.81;5479480;26;20123;-79
2024/04/24 04:33:52;;;;;;;0.00;0.00;;;;;;;6.34;69.22;101259.94;5467314;26;20002;-78
2024/04/24 04:36:18;;;;;;;0.10;0.10;;;;;;;6.37;69.21;101254.69;5469051;26;19994;-78
2024/04/24 04:38:44;;;;;;;0.10;0.10;;;;;;;6.43;69.08;101243.28;5463139;26;20013;-77
2024/04/24 04:41:11;;;;;;;0.10;0.10;;;;;;;6.43;69.15;101241.56;5480616;26;20010;-79
2024/04/24 04:43:37;;;;;;;0.10;0.10;;;;;;;6.43;69.02;101249.47;5480531;26;19999;-80
2024/04/24 04:46:03;;;;;;;0.10;0.10;;;;;;;6.40;69.06;101254.69;5481281;26;19998;-79
2024/04/24 04:48:29;;;;;;;0.10;0.10;;;;;;;6.37;69.02;101252.06;5466421;26;20366;-80
2024/04/24 04:50:56;;;;;;;0.10;0.10;;;;;;;6.35;69.22;101251.16;5467039;26;20014;-79
2024/04/24 04:53:22;;;;;;;0.10;0.10;;;;;;;6.29;68.61;101248.50;5486958;26;20068;-80
2024/04/24 04:55:48;;;;;;;0.10;0.10;;;;;;;6.32;68.51;101246.78;5487473;26;20006;-79
2024/04/24 04:58:14;;;;;;;0.10;0.10;;;;;;;6.31;68.87;101230.97;5468528;26;20010;-79
2024/04/24 05:00:40;;;;;;;0.10;0.10;;;;;;;6.35;68.64;101245.91;5473377;26;19999;-79
2024/04/24 05:03:07;;;;;;;0.10;0.10;;;;;;;6.41;68.59;101231.91;5504970;26;20027;-77
2024/04/24 05:05:33;;;;;;;0.10;0.10;;;;;;;6.41;68.74;101230.13;5500272;26;20002;-77
2024/04/24 05:07:59;;;;;;;0.10;0.10;;;;;;;6.47;68.48;101232.78;5480453;26;19994;-78
2024/04/24 05:10:25;;;;;;;0.10;0.10;;;;;;;6.54;68.16;101231.06;5477540;26;19994;-78
2024/04/24 05:12:52;;;;;;;0.03;0.03;;;;;;;6.48;67.85;101237.19;5471845;26;19999;-78
2024/04/24 05:15:18;;;;;;;0.10;0.10;;;;;;;6.58;67.97;101237.19;5490658;26;20002;-79
2024/04/24 05:17:44;;;;;;;0.10;0.10;;;;;;;6.65;68.07;101233.72;5487227;26;20009;-79
2024/04/24 05:20:10;;;;;;;0.10;0.10;;;;;;;6.70;67.86;101226.69;5484696;26;20080;-80
2024/04/24 05:22:46;;;;;;;0.10;0.10;;;;;;;6.75;67.94;101235.50;5472391;26;20002;-80
2024/04/24 05:25:16;;;;;;;0.10;0.10;;;;;;;6.74;67.66;101228.50;5471057;26;20006;-77
2024/04/24 05:30:30;;;;;;;0.10;0.10;;;;;;;6.74;67.08;101220.59;5473668;26;20100;-80
2024/04/24 05:32:56;;;;;;;0.10;0.10;;;;;;;6.72;67.10;101227.59;5474549;26;19999;-80
2024/04/24 05:35:22;;;;;;;0.57;0.57;;;;;;;6.74;66.88;101230.22;5475625;26;20067;-79
2024/04/24 05:37:49;;;;;;;0.30;0.30;;;;;;;6.71;66.51;101225.81;5472182;26;20001;-77
2024/04/24 05:40:15;;;;;;;0.10;0.10;;;;;;;6.77;66.49;101217.06;5467985;26;19994;-79
2024/04/24 05:42:41;;;;;;;0.10;0.10;;;;;;;6.79;67.08;101216.19;5468735;26;20530;-79
2024/04/24 05:45:10;;;;;;;0.10;0.10;;;;;;;6.87;67.21;101217.97;5461915;26;20384;-79
2024/04/24 05:47:37;;;;;;;2.10;1.98;;;;;;;6.91;67.30;101203.91;5475263;26;20145;-80
2024/04/24 05:50:04;;;;;;;0.05;0.05;;;;;;;6.95;67.50;101217.09;5474589;26;20017;-79
2024/04/24 05:52:30;;;;;;;0.10;0.10;;;;;;;7.00;67.76;101210.94;5465315;26;20445;-78
2024/04/24 05:54:56;;;;;;;0.10;0.10;;;;;;;7.13;67.72;101210.09;5451149;26;20648;-80
2024/04/24 05:57:23;;;;;;;0.15;0.15;;;;;;;7.29;67.69;101213.59;5459877;26;20319;-78
2024/04/24 05:59:49;;;;;;;1.98;1.85;;;;;;;7.33;68.53;101220.63;5465779;26;20023;-78
2024/04/24 06:02:16;;;;;;;0.10;0.10;;;;;;;7.54;68.05;101232.00;5467781;26;19998;-77
2024/04/24 06:04:42;;;;;;;0.10;0.10;;;;;;;7.55;68.23;101210.03;5482271;26;19998;-77
2024/04/24 06:07:08;;;;;;;0.05;0.05;;;;;;;7.48;68.54;101201.28;5460631;26;20522;-77
2024/04/24 06:09:35;;;;;;;0.30;0.30;;;;;;;7.49;67.85;101197.75;5480438;26;19991;-81
2024/04/24 06:12:02;;;;;;;0.10;0.10;;;;;;;7.45;68.20;101199.53;5487348;26;19990;-79
2024/04/24 06:14:29;;;;;;;0.10;0.10;;;;;;;7.49;67.87;101197.75;5474008;26;20010;-80
2024/04/24 06:16:56;;;;;;;0.10;0.10;;;;;;;7.50;68.00;101199.53;5456677;26;20010;-78
2024/04/24 06:19:22;;;;;;;0.10;0.10;;;;;;;7.53;67.84;101201.28;5461678;26;19998;-79
2024/04/24 06:21:48;;;;;;;0.20;0.20;;;;;;;7.54;67.98;101201.25;5480510;26;20075;-78
2024/04/24 06:24:14;;;;;;;0.10;0.10;;;;;;;7.53;67.80;101209.19;5456441;26;20010;-80
2024/04/24 06:26:41;;;;;;;0.00;0.00;;;;;;;7.59;67.92;101217.94;5460998;26;20006;-80
2024/04/24 06:29:07;;;;;;;0.03;0.03;;;;;;;7.54;68.16;101216.19;5471548;26;19998;-78
2024/04/24 06:31:34;;;;;;;0.10;0.10;;;;;;;7.57;68.00;101205.66;5461090;26;20480;-79
2024/04/24 06:34:01;;;;;;;0.10;0.10;;;;;;;7.53;67.58;101202.13;5475538;26;19999;-81
2024/04/24 06:36:27;;;;;;;0.00;0.00;;;;;;;7.52;67.28;101202.16;5476714;26;20074;-81
2024/04/24 06:38:53;;;;;;;0.10;0.10;;;;;;;7.56;67.47;101210.06;5470334;26;19999;-82
2024/04/24 06:41:19;;;;;;;0.10;0.10;;;;;;;7.65;67.44;101200.34;5471103;26;19998;-78
2024/04/24 06:43:45;;;;;;;0.10;0.10;;;;;;;7.71;67.66;101201.25;5460376;26;19999;-79
2024/04/24 06:46:11;;;;;;;0.10;0.10;;;;;;;7.74;67.74;101203.00;5468241;26;20066;-79
2024/04/24 06:48:37;;;;;;;0.10;0.10;;;;;;;7.83;68.00;101207.38;5475663;26;20459;-77
2024/04/24 06:51:04;;;;;;;0.10;0.10;;;;;;;7.91;68.03;101195.00;5475830;26;20458;-78
2024/04/24 06:53:31;;;;;;;0.10;0.10;;;;;;;7.84;68.26;101198.53;5470502;26;20013;-78
2024/04/24 06:56:02;;;;;;;0.10;0.10;;;;;;;7.92;67.74;101194.13;5469276;26;20023;-79
2024/04/24 06:58:29;;;;;;;0.03;0.03;;;;;;;7.75;67.26;101187.16;5484377;26;20013;-77
2024/04/24 07:00:56;;;;;;;0.10;0.10;;;;;;;7.68;67.55;101188.03;5472371;26;20002;-77
2024/04/24 07:03:23;;;;;;;0.10;0.10;;;;;;;7.57;67.03;101180.16;5476968;26;19998;-79
2024/04/24 07:05:50;;;;;;;0.10;0.10;;;;;;;7.49;67.11;101191.59;5456597;26;20075;-78
2024/04/24 07:08:18;;;;;;;0.10;0.10;;;;;;;7.42;66.89;101167.88;5478254;26;20349;-77
2024/04/24 07:10:45;;;;;;;0.10;0.10;;;;;;;7.44;67.06;101174.03;5472410;26;20010;-79
2024/04/24 07:13:11;;;;;;;0.10;0.10;;;;;;;7.48;67.23;101171.38;5472715;26;20002;-77
2024/04/24 07:15:37;;;;;;;0.10;0.10;;;;;;;7.45;67.13;101167.88;5471963;26;20007;-75
2024/04/24 07:18:04;;;;;;;0.10;0.10;;;;;;;7.49;67.87;101165.22;5488527;26;20017;-77
2024/04/24 07:20:30;;;;;;;0.10;0.10;;;;;;;7.55;67.51;101165.22;5474012;26;20014;-77
2024/04/24 07:22:57;;;;;;;0.00;0.00;;;;;;;7.56;67.50;101167.88;5476744;26;20010;-78
2024/04/24 07:25:24;;;;;;;0.10;0.10;;;;;;;7.54;67.55;101164.34;5468283;26;20015;-78
2024/04/24 07:27:50;;;;;;;0.10;0.10;;;;;;;7.54;67.58;101159.06;5464422;26;19999;-79
2024/04/24 07:30:16;;;;;;;0.10;0.10;;;;;;;7.55;67.34;101159.94;5480339;26;20002;-79
2024/04/24 07:32:42;;;;;;;0.10;0.10;;;;;;;7.67;67.84;101153.78;5475570;26;20011;-77
2024/04/24 07:35:09;;;;;;;0.05;0.05;;;;;;;7.78;68.04;101152.84;5473976;26;20013;-77
2024/04/24 07:37:35;;;;;;;0.10;0.10;;;;;;;7.86;68.10;101147.56;5469923;26;19995;-79
2024/04/24 07:40:02;;;;;;;0.13;0.13;;;;;;;8.01;67.66;101153.63;5459555;26;20007;-80
2024/04/24 07:42:28;;;;;;;0.10;0.10;;;;;;;8.07;67.69;101154.50;5472578;26;20003;-78
2024/04/24 07:44:54;;;;;;;39.55;1.40;;;;;;;8.14;68.01;101165.00;5464590;26;19994;-77
2024/04/24 07:47:20;;;;;;;0.10;0.10;;;;;;;8.23;68.08;101164.97;5483131;26;20001;-79
2024/04/24 07:49:46;;;;;;;0.10;0.10;;;;;;;8.29;68.30;101169.31;5463661;26;20007;-76
2024/04/24 07:52:13;;;;;;;0.10;0.10;;;;;;;8.30;67.95;101176.38;5469651;26;20010;-75
2024/04/24 07:54:39;;;;;;;0.13;0.13;;;;;;;8.25;67.99;101168.50;5494323;26;19994;-77
2024/04/24 07:57:06;;;;;;;0.10;0.10;;;;;;;8.24;68.40;101166.72;5480567;26;20001;-79
2024/04/24 07:59:32;;;;;;;0.10;0.10;;;;;;;8.28;68.07;101167.59;5472058;26;20020;-78
2024/04/24 08:01:58;;;;;;;0.10;0.10;;;;;;;8.21;68.19;101162.34;5475094;26;20484;-79
2024/04/24 08:04:24;;;;;;;0.68;0.68;;;;;;;8.24;67.72;101161.44;5484799;26;20015;-80
2024/04/24 08:06:50;;;;;;;0.10;0.10;;;;;;;8.24;67.61;101158.81;5487313;26;20465;-79
2024/04/24 08:09:17;;;;;;;0.10;0.10;;;;;;;8.24;67.64;101172.00;5497152;26;20292;-79
2024/04/24 08:11:44;;;;;;;0.10;0.10;;;;;;;8.26;67.70;101186.97;5476631;26;20009;-78
2024/04/24 08:14:11;;;;;;;0.00;0.00;;;;;;;8.25;67.87;101189.63;5483987;26;19995;-79
2024/04/24 08:16:37;;;;;;;0.10;0.10;;;;;;;8.20;67.81;101186.09;5471887;26;19999;-77
2024/04/24 08:19:03;;;;;;;0.00;0.00;;;;;;;8.06;67.15;101167.69;5497265;26;20002;-77
2024/04/24 08:21:29;;;;;;;0.10;0.10;;;;;;;7.92;66.94;101165.09;5480809;26;20843;-76
2024/04/24 08:23:56;;;;;;;0.10;0.10;;;;;;;7.95;67.35;101157.19;5503664;26;20056;-76
2024/04/24 08:26:22;;;;;;;0.08;0.08;;;;;;;8.08;68.04;101158.88;5499120;25;20074;-78
2024/04/24 08:28:49;;;;;;;0.10;0.10;;;;;;;8.19;68.49;101147.41;5461441;26;20071;-77
2024/04/24 08:31:15;;;;;;;0.10;0.10;;;;;;;8.29;68.33;101146.47;5459985;26;20048;-78
2024/04/24 08:33:41;;;;;;;0.10;0.10;;;;;;;8.30;68.36;101145.59;5460818;26;19994;-79
2024/04/24 08:36:11;;;;;;;0.10;0.10;;;;;;;8.45;68.21;101139.31;5458903;26;20067;-80
2024/04/24 08:38:37;;;;;;;0.10;0.10;;;;;;;8.59;68.07;101141.91;5482914;26;20017;-79
2024/04/24 08:43:44;;;;;;;0.03;0.03;;;;;;;8.96;67.72;101151.31;5570711;25;20318;-79
2024/04/24 08:46:11;;;;;;;0.10;0.10;;;;;;;8.89;66.41;101139.91;5550396;25;20025;-79
2024/04/24 08:48:40;;;;;;;0.10;0.10;;;;;;;9.00;65.55;101145.97;5552594;25;20005;-78
2024/04/24 08:51:08;;;;;;;0.10;0.10;;;;;;;8.99;65.44;101151.28;5550120;25;19997;-80
2024/04/24 08:53:35;;;;;;;0.00;0.00;;;;;;;9.23;66.11;101158.09;5549179;25;20023;-80
2024/04/24 08:56:04;;;;;;;0.00;0.00;;;;;;;9.28;65.70;101158.94;5548092;25;19996;-80
2024/04/24 08:58:35;;;;;;;0.10;0.10;;;;;;;9.41;64.80;101153.53;5536450;25;20414;-79
2024/04/24 09:01:07;;;;;;;0.10;0.10;;;;;;;9.39;64.36;101161.50;5538538;25;20323;-79
2024/04/24 09:03:39;;;;;;;0.10;0.10;;;;;;;9.47;64.36;101166.69;5532228;25;19997;-79
2024/04/24 09:06:08;;;;;;;0.13;0.13;;;;;;;9.31;64.35;101158.94;5530846;25;20001;-78
2024/04/24 09:08:35;;;;;;;0.10;0.10;;;;;;;9.26;64.33;101166.03;5532105;25;20392;-79
2024/04/24 09:11:02;;;;;;;2.72;1.65;;;;;;;9.20;64.91;101156.38;5532972;25;19994;-79
2024/04/24 09:13:29;;;;;;;0.10;0.10;;;;;;;9.17;65.07;101151.13;5543867;25;20001;-77
2024/04/24 09:15:59;;;;;;;0.08;0.08;;;;;;;9.17;65.53;101160.81;5534414;25;20005;-78
2024/04/24 09:18:25;;;;;;;0.13;0.13;;;;;;;9.03;66.39;101180.34;5543383;25;20009;-78
2024/04/24 09:20:52;;;;;;;0.10;0.10;;;;;;;8.84;65.91;101186.66;5545350;25;20005;-77
2024/04/24 09:23:22;;;;;;;0.10;0.10;;;;;;;8.40;66.25;101176.31;5543181;25;19997;-78
2024/04/24 09:25:49;;;;;;;0.00;0.00;;;;;;;8.34;66.23;101164.91;5543396;25;20006;-78
2024/04/24 09:28:15;;;;;;;0.10;0.10;;;;;;;8.30;66.45;101161.41;5552919;25;19982;-75
2024/04/24 09:30:42;;;;;;;0.10;0.10;;;;;;;8.31;67.00;101157.91;5567724;25;19992;-78
2024/04/24 09:33:08;;;;;;;0.08;0.08;;;;;;;8.31;67.72;101155.25;5553328;25;20305;-77
2024/04/24 09:35:34;;;;;;;0.10;0.10;;;;;;;8.37;67.68;101147.31;5546972;25;19993;-78
2024/04/24 09:38:01;;;;;;;0.10;0.10;;;;;;;8.27;68.03;101156.13;5535856;25;20003;-78
2024/04/24 09:40:28;;;;;;;0.10;0.10;;;;;;;8.30;68.75;101150.88;5547948;25;19994;-80
2024/04/24 09:42:55;;;;;;;0.95;0.95;;;;;;;8.44;69.35;101145.50;5529095;25;19990;-79
2024/04/24 09:45:26;;;;;;;0.10;0.10;;;;;;;8.59;68.70;101144.53;5542069;25;20000;-80
2024/04/24 09:47:52;;;;;;;0.10;0.10;;;;;;;8.81;68.92;101150.56;5541581;25;20026;-79
2024/04/24 09:50:18;;;;;;;0.10;0.10;;;;;;;8.95;69.12;101142.50;5537813;25;20078;-80
2024/04/24 09:52:46;;;;;;;0.10;0.10;;;;;;;9.18;68.53;101136.13;5538367;25;19993;-80
2024/04/24 09:55:14;;;;;;;0.00;0.00;;;;;;;9.33;68.11;101137.75;5521487;26;19997;-80
2024/04/24 09:57:44;;;;;;;1.23;1.15;;;;;;;9.52;68.25;101141.06;5526902;25;19997;-79
2024/04/24 10:00:13;;;;;;;0.10;0.10;;;;;;;9.64;67.29;101138.28;5515550;26;20064;-79
2024/04/24 10:02:43;;;;;;;0.10;0.10;;;;;;;9.69;67.29;101133.84;5526932;26;20002;-78
2024/04/24 10:07:55;;;;;;;0.10;0.10;;;;;;;9.93;66.40;101126.50;5486951;25;20699;-82
2024/04/24 10:10:28;;;;;;;0.10;0.10;;;;;;;9.98;65.60;101129.97;5458485;26;20364;-80
2024/04/24 10:12:56;;;;;;;0.00;0.00;;;;;;;10.15;64.99;101120.91;5449322;26;19991;-81
2024/04/24 10:15:28;;;;;;;0.10;0.10;;;;;;;10.19;63.58;101122.59;5467415;26;19998;-82
2024/04/24 10:17:55;;;;;;;0.10;0.10;;;;;;;10.36;63.68;101115.31;5481370;26;20030;-79
2024/04/24 10:20:22;;;;;;;0.10;0.10;;;;;;;10.48;62.95;101110.75;5473073;26;20460;-80
2024/04/24 10:22:49;;;;;;;0.10;0.10;;;;;;;10.58;61.83;101109.72;5460881;26;20035;-81
2024/04/24 10:25:18;;;;;;;0.03;0.03;;;;;;;10.83;63.01;101106.66;5478201;26;20463;-79
2024/04/24 10:27:46;;;;;;;0.00;0.00;;;;;;;11.00;61.59;101103.72;5466247;26;20018;-80
2024/04/24 10:30:15;;;;;;;0.30;0.30;;;;;;;11.23;60.87;101095.34;5462971;26;19994;-81
2024/04/24 10:32:41;;;;;;;0.10;0.10;;;;;;;11.38;59.98;101086.22;5460278;26;20026;-79
2024/04/24 10:35:09;;;;;;;0.05;0.05;;;;;;;11.46;58.57;101094.03;5481955;26;20043;-77
2024/04/24 10:37:35;;;;;;;0.10;0.10;;;;;;;11.33;59.88;101126.09;5468315;26;19999;-79
2024/04/24 10:40:01;;;;;;;0.10;0.10;;;;;;;10.87;60.32;101129.56;5464178;26;20010;-77
2024/04/24 10:42:27;;;;;;;0.10;0.10;;;;;;;10.33;60.99;101123.28;5457289;26;20003;-79
2024/04/24 10:44:53;;;;;;;0.00;0.00;;;;;;;9.80;61.52;101122.25;5472148;26;19998;-78
2024/04/24 10:47:20;;;;;;;1.35;1.35;;;;;;;9.56;62.31;101124.28;5451308;26;20473;-79
2024/04/24 10:49:56;;;;;;;0.10;0.10;;;;;;;9.46;63.60;101112.03;5480053;26;20448;-80
2024/04/24 10:52:24;;;;;;;0.00;0.00;;;;;;;9.39;63.80;101103.31;5465969;26;20017;-78
2024/04/24 10:54:52;;;;;;;0.10;0.10;;;;;;;9.64;64.04;101103.03;5447900;26;19994;-78
2024/04/24 10:57:29;;;;;;;0.10;0.10;;;;;;;9.76;63.56;101087.00;5450841;26;20353;-79
2024/04/24 11:00:11;;;;;;;0.10;0.10;;;;;;;10.09;62.88;101091.88;5468979;26;19999;-80
2024/04/24 11:02:39;;;;;;;0.10;0.10;;;;;;;10.20;62.51;101092.59;5458464;26;20013;-78
2024/04/24 11:05:06;;;;;;;0.10;0.10;;;;;;;10.45;62.39;101085.16;5456472;26;19995;-79
2024/04/24 11:07:32;;;;;;;0.00;0.00;;;;;;;10.60;62.03;101081.41;5451245;26;19999;-79
2024/04/24 11:09:58;;;;;;;0.10;0.10;;;;;;;10.88;62.90;101086.25;5463297;26;20074;-77
2024/04/24 11:12:24;;;;;;;0.10;0.10;;;;;;;10.93;59.94;101078.19;5461482;26;20006;-80
2024/04/24 11:14:52;;;;;;;0.00;0.00;;;;;;;10.97;59.96;101067.53;5451188;26;20089;-80
2024/04/24 11:17:23;;;;;;;0.00;0.00;;;;;;;11.06;59.52;101065.63;5475584;26;20006;-79
2024/04/24 11:19:49;;;;;;;1.08;0.90;;;;;;;11.01;59.25;101068.34;5445220;26;20007;-82
2024/04/24 11:22:25;;;;;;;0.00;0.00;;;;;;;11.16;59.46;101078.69;5456231;26;20080;-80
2024/04/24 11:24:51;;;;;;;0.00;0.00;;;;;;;11.23;61.44;101090.03;5469893;26;20009;-78
2024/04/24 11:27:23;;;;;;;0.10;0.10;;;;;;;11.25;60.97;101090.91;5463294;26;20043;-79
2024/04/24 11:29:49;;;;;;;0.10;0.10;;;;;;;10.83;60.77;101094.28;5435404;26;20067;-79
2024/04/24 11:32:16;;;;;;;0.10;0.10;;;;;;;10.52;61.43;101089.47;5442537;26;20538;-82
2024/04/24 11:34:42;;;;;;;0.10;0.10;;;;;;;10.02;61.54;101097.25;5441327;26;19995;-81
2024/04/24 11:37:16;;;;;;;0.75;0.75;;;;;;;10.12;62.52;101089.16;5467671;26;19999;-85
2024/04/24 11:39:46;;;;;;;0.10;0.10;;;;;;;10.04;61.84;101076.94;5482192;26;19991;-86
2024/04/24 11:42:12;;;;;;;0.10;0.10;;;;;;;10.12;62.20;101074.16;5455860;26;19998;-83
2024/04/24 11:44:39;;;;;;;0.10;0.10;;;;;;;10.08;62.34;101074.22;5458966;26;20007;-83